createdAt,value
2022-09-29T07:14:43.667Z,41.43
2022-09-29T07:17:32.152Z,37.47
2022-09-29T07:20:20.497Z,35.73
2022-09-29T07:23:09.280Z,34.03
2022-09-29T07:25:57.745Z,31.87
2022-09-29T07:28:47.432Z,32.87
2022-09-29T07:31:47.964Z,32.70
2022-09-29T07:34:39.249Z,32.20
2022-09-29T07:37:27.858Z,29.67
2022-09-29T07:40:18.020Z,29.47
2022-09-29T07:43:07.735Z,30.50
2022-09-29T07:45:56.320Z,28.83
2022-09-29T07:48:46.208Z,27.80
2022-09-29T07:51:34.706Z,26.43
2022-09-29T07:54:28.507Z,25.33
2022-09-29T07:57:17.886Z,26.70
2022-09-29T08:00:06.987Z,25.17
2022-09-29T08:03:02.467Z,25.63
2022-09-29T08:05:52.388Z,25.67
2022-09-29T08:08:45.210Z,25.30
2022-09-29T08:11:39.573Z,27.00
2022-09-29T08:14:28.834Z,26.53
2022-09-29T08:17:17.543Z,26.60
2022-09-29T08:20:07.007Z,25.07
2022-09-29T08:22:57.227Z,23.60
2022-09-29T08:25:55.302Z,22.97
2022-09-29T08:28:57.487Z,22.30
2022-09-29T08:31:51.256Z,22.00
2022-09-29T08:34:40.355Z,20.93
2022-09-29T08:37:33.067Z,21.67
2022-09-29T08:40:25.443Z,21.50
2022-09-29T08:43:31.037Z,21.63
2022-09-29T08:46:35.393Z,22.23
2022-09-29T08:49:33.499Z,21.23
2022-09-29T08:52:26.421Z,20.93
2022-09-29T08:55:27.007Z,21.20
2022-09-29T08:58:17.562Z,21.17
2022-09-29T09:01:17.581Z,21.30
2022-09-29T09:04:24.381Z,21.07
2022-09-29T09:07:22.415Z,19.97
2022-09-29T09:10:24.059Z,25.43
2022-09-29T09:13:32.616Z,18.87
2022-09-29T09:16:32.577Z,17.20
2022-09-29T09:19:43.695Z,14.97
2022-09-29T09:22:42.963Z,15.23
2022-09-29T09:25:33.921Z,13.90
2022-09-29T09:28:32.347Z,13.20
2022-09-29T09:31:28.325Z,13.47
2022-09-29T09:34:38.376Z,14.93
2022-09-29T09:37:31.961Z,12.87
2022-09-29T09:40:29.774Z,12.57
2022-09-29T09:43:23.691Z,11.47
2022-09-29T09:46:15.800Z,12.82
2022-09-29T09:49:13.063Z,10.68
2022-09-29T09:52:05.667Z,10.40
2022-09-29T09:54:57.457Z,15.23
2022-09-29T09:57:57.541Z,11.70
2022-09-29T10:00:51.198Z,13.52
2022-09-29T10:03:41.064Z,15.55
2022-09-29T10:06:30.362Z,15.93
2022-09-29T10:09:19.436Z,16.05
2022-09-29T10:12:13.763Z,15.93
2022-09-29T10:15:05.861Z,13.52
2022-09-29T10:18:01.646Z,14.25
2022-09-29T10:20:56.482Z,15.50
2022-09-29T10:23:52.092Z,15.65
2022-09-29T10:26:44.704Z,15.98
2022-09-29T10:32:37.499Z,16.50
2022-09-29T10:35:29.241Z,18.02
2022-09-29T10:41:14.892Z,14.75
2022-09-29T10:44:22.335Z,16.33
2022-09-29T10:47:16.572Z,17.08
2022-09-29T10:50:17.374Z,16.70
2022-09-29T10:53:18.138Z,16.97
2022-09-29T10:56:17.519Z,17.77
2022-09-29T10:59:07.294Z,18.57
2022-09-29T11:01:59.493Z,18.25
2022-09-29T11:04:49.235Z,23.00
2022-09-29T11:07:45.237Z,19.97
2022-09-29T11:10:36.086Z,19.93
2022-09-29T11:13:37.140Z,19.50
2022-09-29T11:16:30.962Z,20.47
2022-09-29T11:19:19.389Z,20.33
2022-09-29T11:22:35.564Z,18.37
2022-09-29T11:25:37.961Z,18.70
2022-09-29T11:28:48.494Z,19.10
2022-09-29T11:31:51.833Z,17.60
2022-09-29T11:34:55.322Z,17.57
2022-09-29T11:37:49.078Z,16.53
2022-09-29T11:40:45.934Z,15.50
2022-09-29T11:43:46.126Z,17.10
2022-09-29T11:46:55.129Z,14.33
2022-09-29T11:50:01.711Z,14.60
2022-09-29T11:53:24.706Z,15.03
2022-09-29T11:56:31.991Z,17.07
2022-09-29T11:59:41.456Z,13.95
2022-09-29T12:02:32.858Z,13.60
2022-09-29T12:05:35.124Z,13.57
2022-09-29T12:08:29.741Z,12.67
2022-09-29T12:11:47.475Z,12.40
2022-09-29T12:14:53.311Z,12.67
2022-09-29T12:17:46.894Z,13.25
2022-09-29T12:20:40.283Z,12.80
2022-09-29T12:23:38.095Z,11.73
2022-09-29T12:26:27.932Z,10.25
2022-09-29T12:29:24.264Z,10.40
2022-09-29T12:32:19.520Z,9.90
2022-09-29T12:35:16.377Z,10.52
2022-09-29T12:38:16.404Z,10.38
2022-09-29T12:41:17.419Z,9.48
2022-09-29T12:44:13.123Z,9.30
2022-09-29T12:47:07.415Z,8.55
2022-09-29T12:50:04.633Z,8.25
2022-09-29T12:52:58.257Z,8.45
2022-09-29T12:55:55.722Z,8.27
2022-09-29T12:58:39.789Z,6.88
2022-09-29T13:01:31.073Z,7.03
2022-09-29T13:04:56.409Z,9.55
2022-09-29T13:08:00.409Z,7.63
2022-09-29T13:11:07.597Z,7.55
2022-09-29T13:14:18.742Z,7.90
2022-09-29T13:17:20.827Z,9.02
2022-09-29T13:20:43.911Z,7.13
2022-09-29T13:24:16.768Z,7.28
2022-09-29T13:27:29.867Z,7.47
2022-09-29T13:30:20.802Z,5.13
2022-09-29T13:33:11.583Z,4.82
2022-09-29T13:36:00.501Z,4.82
2022-09-29T13:38:57.612Z,4.77
2022-09-29T13:41:46.007Z,4.80
2022-09-29T13:44:35.795Z,5.80
2022-09-29T13:47:35.072Z,6.00
2022-09-29T13:50:43.384Z,7.00
2022-09-29T13:53:32.789Z,7.27
2022-09-29T13:56:22.434Z,7.73
2022-09-29T13:59:15.675Z,12.48
2022-09-29T14:02:20.386Z,7.67
2022-09-29T14:05:30.644Z,6.97
2022-09-29T14:08:23.792Z,6.97
2022-09-29T14:11:23.333Z,6.70
2022-09-29T14:14:19.617Z,7.20
2022-09-29T14:17:16.431Z,7.13
2022-09-29T14:19:56.547Z,6.67
2022-09-29T14:22:59.152Z,7.10
2022-09-29T14:25:57.745Z,7.40
2022-09-29T14:28:46.902Z,7.93
2022-09-29T14:31:35.449Z,8.77
2022-09-29T14:34:29.463Z,8.37
2022-09-29T14:37:21.609Z,8.33
2022-09-29T14:40:27.806Z,8.10
2022-09-29T14:43:13.147Z,8.07
2022-09-29T14:47:03.627Z,7.93
2022-09-29T14:50:29.655Z,6.67
2022-09-29T14:53:45.012Z,6.60
2022-09-29T14:56:49.169Z,6.17
2022-09-29T14:59:53.452Z,5.60
2022-09-29T15:02:45.614Z,5.50
2022-09-29T15:05:36.615Z,5.23
2022-09-29T15:08:31.708Z,5.53
2022-09-29T15:11:32.643Z,5.60
2022-09-29T15:14:26.793Z,5.17
2022-09-29T15:17:25.350Z,5.20
2022-09-29T15:20:23.279Z,5.30
2022-09-29T15:23:31.632Z,5.53
2022-09-29T15:26:20.869Z,5.33
2022-09-29T15:29:17.289Z,4.90
2022-09-29T15:32:21.214Z,4.80
2022-09-29T15:35:16.861Z,4.87
2022-09-29T15:38:32.589Z,4.23
2022-09-29T15:41:27.419Z,3.97
2022-09-29T15:44:20.896Z,4.63
2022-09-29T15:47:24.811Z,4.30
2022-09-29T15:50:20.342Z,4.83
2022-09-29T15:53:10.240Z,4.63
2022-09-29T15:56:00.494Z,4.80
2022-09-29T15:58:49.884Z,4.90
2022-09-29T16:01:38.288Z,5.43
2022-09-29T16:04:27.908Z,5.43
2022-09-29T16:07:21.999Z,4.93
2022-09-29T16:10:17.529Z,5.60
2022-09-29T16:13:08.818Z,4.93
2022-09-29T16:16:00.060Z,4.90
2022-09-29T16:18:58.716Z,4.70
2022-09-29T16:21:53.375Z,4.73
2022-09-29T16:24:54.202Z,4.77
2022-09-29T16:27:48.958Z,4.90
2022-09-29T16:30:39.821Z,5.03
2022-09-29T16:33:28.358Z,5.57
2022-09-29T16:36:20.648Z,23.67
2022-09-29T16:39:20.039Z,12.97
2022-09-29T16:42:19.878Z,8.57
2022-09-29T16:44:59.353Z,8.10
2022-09-29T16:47:51.136Z,10.97
2022-09-29T16:50:39.533Z,9.03
2022-09-29T16:53:31.520Z,9.10
2022-09-29T16:56:25.907Z,9.70
2022-09-29T16:59:12.543Z,9.90
2022-09-29T17:01:53.078Z,11.43
2022-09-29T17:04:43.093Z,11.10
2022-09-29T17:07:32.554Z,11.73
2022-09-29T17:10:22.434Z,11.17
2022-09-29T17:13:15.982Z,10.80
2022-09-29T17:16:08.122Z,13.43
2022-09-29T17:19:01.293Z,13.80
2022-09-29T17:21:51.828Z,11.37
2022-09-29T17:24:40.157Z,12.00
2022-09-29T17:27:47.282Z,11.20
2022-09-29T17:30:28.666Z,14.70
2022-09-29T17:33:18.760Z,14.83
2022-09-29T17:36:09.282Z,13.70
2022-09-29T17:38:58.946Z,13.80
2022-09-29T17:41:47.748Z,14.53
2022-09-29T17:44:37.940Z,13.50
2022-09-29T17:47:29.238Z,27.43
2022-09-29T17:50:24.691Z,16.87
2022-09-29T17:53:14.202Z,15.30
2022-09-29T17:56:04.850Z,15.33
2022-09-29T17:58:54.059Z,15.47
2022-09-29T18:01:42.501Z,16.13
2022-09-29T18:04:33.829Z,17.47
2022-09-29T18:07:22.306Z,16.90
2022-09-29T18:10:22.337Z,18.30
2022-09-29T18:13:12.511Z,18.83
2022-09-29T18:16:03.102Z,19.23
2022-09-29T18:18:57.984Z,19.97
2022-09-29T18:21:47.295Z,20.57
2022-09-29T18:24:35.953Z,21.47
2022-09-29T18:27:24.307Z,22.60
2022-09-29T18:30:20.550Z,23.07
2022-09-29T18:33:14.504Z,24.00
2022-09-29T18:36:03.475Z,25.00
2022-09-29T18:38:51.987Z,24.10
2022-09-29T18:41:40.751Z,24.33
2022-09-29T18:44:33.510Z,23.53
2022-09-29T18:47:23.333Z,22.90
2022-09-29T18:50:16.673Z,24.03
2022-09-29T18:53:04.975Z,26.07
2022-09-29T18:56:00.262Z,26.03
2022-09-29T18:58:48.653Z,30.33
2022-09-29T19:01:37.162Z,29.60
2022-09-29T19:04:27.214Z,28.83
2022-09-29T19:07:15.799Z,29.67
2022-09-29T19:10:04.216Z,30.43
2022-09-29T19:12:58.876Z,31.57
2022-09-29T19:15:48.411Z,31.80
2022-09-29T19:18:36.831Z,33.17
2022-09-29T19:21:26.919Z,32.13
2022-09-29T19:24:16.443Z,33.50
2022-09-29T19:27:05.118Z,34.47
2022-09-29T19:29:58.425Z,34.90
2022-09-29T19:32:49.547Z,35.17
2022-09-29T19:35:38.704Z,34.40
2022-09-29T19:38:28.561Z,34.83
2022-09-29T19:41:20.163Z,39.00
2022-09-29T19:44:09.633Z,36.27
2022-09-29T19:46:59.481Z,37.23
2022-09-29T19:49:47.886Z,37.00
2022-09-29T19:52:35.334Z,37.60
2022-09-29T19:55:25.666Z,39.60
2022-09-29T19:58:14.306Z,41.27
2022-09-29T20:01:02.717Z,41.50
2022-09-29T20:03:51.068Z,42.60
2022-09-29T20:06:40.077Z,44.30
2022-09-29T20:09:28.964Z,44.10
2022-09-29T20:12:19.730Z,44.53
2022-09-29T20:15:09.062Z,45.87
2022-09-29T20:17:57.608Z,45.80
2022-09-29T20:20:51.646Z,47.27
2022-09-29T20:23:40.411Z,48.30
2022-09-29T20:26:29.756Z,46.60
2022-09-29T20:29:20.575Z,47.17
2022-09-29T20:32:08.914Z,46.87
2022-09-29T20:34:57.234Z,47.67
2022-09-29T20:37:49.324Z,48.60
2022-09-29T20:40:37.627Z,48.77
2022-09-29T20:43:26.303Z,50.20
2022-09-29T20:46:16.540Z,52.70
2022-09-29T20:49:05.168Z,52.10
2022-09-29T20:51:53.890Z,51.17
2022-09-29T20:54:43.161Z,51.10
2022-09-29T20:57:33.529Z,52.27
2022-09-29T21:00:21.926Z,53.53
2022-09-29T21:03:11.707Z,53.77
2022-09-29T21:06:00.009Z,56.30
2022-09-29T21:08:48.664Z,52.77
2022-09-29T21:11:40.173Z,52.63
2022-09-29T21:14:29.355Z,53.83
2022-09-29T21:17:17.803Z,56.13
2022-09-29T21:20:09.351Z,57.17
2022-09-29T21:22:57.730Z,57.87
2022-09-29T21:25:46.077Z,58.80
2022-09-29T21:28:38.702Z,57.50
2022-09-29T21:31:28.745Z,60.70
2022-09-29T21:34:17.469Z,61.00
2022-09-29T21:37:07.376Z,62.73
2022-09-29T21:39:55.720Z,62.47
2022-09-29T21:42:44.014Z,61.13
2022-09-29T21:45:32.332Z,62.67
2022-09-29T21:48:20.763Z,62.53
2022-09-29T21:51:11.348Z,62.30
2022-09-29T21:54:01.445Z,60.07
2022-09-29T21:56:53.148Z,61.27
2022-09-29T21:59:41.431Z,64.20
2022-09-29T22:02:29.848Z,63.40
2022-09-29T22:05:18.315Z,63.60
2022-09-29T22:08:11.450Z,61.00
2022-09-29T22:11:01.945Z,62.83
2022-09-29T22:13:51.348Z,61.20
2022-09-29T22:16:39.995Z,60.50
2022-09-29T22:19:29.088Z,60.37
2022-09-29T22:22:17.399Z,60.30
2022-09-29T22:25:06.880Z,60.00
2022-09-29T22:27:56.621Z,60.33
2022-09-29T22:30:44.986Z,60.87
2022-09-29T22:33:33.954Z,59.93
2022-09-29T22:36:22.334Z,61.03
2022-09-29T22:39:12.075Z,60.43
2022-09-29T22:42:01.416Z,58.87
2022-09-29T22:44:51.187Z,59.33
2022-09-29T22:47:39.583Z,59.30
2022-09-29T22:50:31.517Z,57.37
2022-09-29T22:53:19.843Z,57.80
2022-09-29T22:56:13.479Z,56.90
2022-09-29T22:59:04.380Z,55.97
2022-09-29T23:01:54.359Z,54.70
2022-09-29T23:04:42.771Z,55.53
2022-09-29T23:07:31.163Z,55.20
2022-09-29T23:10:19.570Z,55.43
2022-09-29T23:13:07.953Z,56.87
2022-09-29T23:15:56.293Z,56.80
2022-09-29T23:18:47.382Z,56.50
2022-09-29T23:21:35.810Z,56.73
2022-09-29T23:24:24.445Z,57.27
2022-09-29T23:27:12.823Z,56.50
2022-09-29T23:30:01.159Z,55.33
2022-09-29T23:32:49.973Z,54.53
2022-09-29T23:35:39.679Z,55.30
2022-09-29T23:38:45.871Z,55.23
2022-09-29T23:41:34.451Z,54.90
2022-09-29T23:44:24.932Z,55.43
2022-09-29T23:47:13.222Z,54.43
2022-09-29T23:50:02.051Z,54.67
2022-09-29T23:52:51.822Z,55.50
2022-09-29T23:55:40.363Z,53.80
2022-09-29T23:58:28.711Z,55.27
